createdAt,value
2018-08-11T00:00:34.592Z,16.61
2018-08-11T00:01:34.594Z,16.61
2018-08-11T00:02:34.594Z,16.68
2018-08-11T00:03:34.593Z,16.64
2018-08-11T00:04:34.594Z,16.51
2018-08-11T00:05:34.594Z,16.55
2018-08-11T00:06:34.595Z,16.65
2018-08-11T00:07:34.596Z,16.61
2018-08-11T00:08:34.596Z,16.61
2018-08-11T00:09:34.596Z,16.59
2018-08-11T00:10:34.597Z,16.66
2018-08-11T00:11:34.597Z,16.54
2018-08-11T00:12:34.597Z,16.59
2018-08-11T00:13:34.597Z,16.65
2018-08-11T00:14:34.598Z,16.68
2018-08-11T00:15:34.599Z,16.57
2018-08-11T00:16:34.598Z,16.64
2018-08-11T00:17:34.599Z,16.61
2018-08-11T00:18:34.600Z,16.44
2018-08-11T00:19:34.600Z,16.54
2018-08-11T00:20:34.599Z,16.47
2018-08-11T00:21:34.601Z,16.34
2018-08-11T00:22:34.602Z,16.40
2018-08-11T00:23:34.600Z,16.41
2018-08-11T00:24:34.601Z,16.46
2018-08-11T00:25:34.601Z,16.37
2018-08-11T00:26:34.602Z,16.41
2018-08-11T00:27:34.602Z,16.43
2018-08-11T00:28:34.600Z,16.43
2018-08-11T00:29:34.602Z,16.49
2018-08-11T00:30:34.603Z,16.46
2018-08-11T00:31:34.604Z,16.44
2018-08-11T00:32:34.603Z,16.40
2018-08-11T00:33:34.604Z,16.46
2018-08-11T00:34:34.604Z,16.47
2018-08-11T00:35:34.605Z,16.40
2018-08-11T00:36:34.621Z,16.44
2018-08-11T00:37:34.605Z,16.47
2018-08-11T00:38:34.646Z,16.40
2018-08-11T00:39:34.605Z,16.50
2018-08-11T00:40:34.606Z,16.49
2018-08-11T00:41:34.606Z,16.41
2018-08-11T00:42:34.606Z,16.37
2018-08-11T00:43:34.608Z,16.46
2018-08-11T00:44:34.605Z,16.39
2018-08-11T00:45:34.607Z,16.41
2018-08-11T00:46:34.608Z,16.61
2018-08-11T00:47:34.607Z,16.51
2018-08-11T00:48:34.607Z,16.46
2018-08-11T00:49:34.662Z,16.44
2018-08-11T00:50:34.608Z,16.32
2018-08-11T00:51:34.609Z,16.28
2018-08-11T00:52:34.607Z,16.25
2018-08-11T00:53:34.610Z,16.18
2018-08-11T00:54:34.609Z,16.18
2018-08-11T00:55:34.613Z,16.21
2018-08-11T00:56:34.609Z,16.16
2018-08-11T00:57:34.609Z,16.31
2018-08-11T00:58:34.610Z,16.31
2018-08-11T00:59:34.610Z,16.22
2018-08-11T01:00:34.612Z,16.16
2018-08-11T01:01:34.610Z,16.24
2018-08-11T01:02:34.610Z,16.12
2018-08-11T01:03:34.611Z,16.18
2018-08-11T01:04:34.610Z,16.05
2018-08-11T01:05:34.610Z,16.08
2018-08-11T01:06:34.611Z,16.16
2018-08-11T01:07:34.610Z,16.26
2018-08-11T01:08:34.611Z,16.18
2018-08-11T01:09:34.613Z,16.16
2018-08-11T01:10:34.611Z,16.13
2018-08-11T01:11:34.612Z,16.18
2018-08-11T01:12:34.610Z,16.05
2018-08-11T01:13:34.612Z,16.17
2018-08-11T01:14:34.611Z,16.18
2018-08-11T01:15:34.617Z,16.22
2018-08-11T01:16:34.613Z,16.25
2018-08-11T01:17:34.612Z,16.21
2018-08-11T01:18:34.619Z,16.39
2018-08-11T01:19:34.612Z,16.28
2018-08-11T01:20:34.613Z,16.29
2018-08-11T01:21:34.612Z,16.22
2018-08-11T01:22:34.611Z,16.22
2018-08-11T01:23:34.613Z,16.61
2018-08-11T01:24:34.612Z,16.43
2018-08-11T01:25:34.613Z,16.43
2018-08-11T01:26:34.613Z,16.34
2018-08-11T01:27:34.613Z,16.32
2018-08-11T01:28:34.614Z,16.28
2018-08-11T01:29:34.614Z,16.34
2018-08-11T01:30:34.612Z,16.37
2018-08-11T01:31:34.614Z,16.25
2018-08-11T01:32:34.613Z,16.18
2018-08-11T01:33:34.613Z,16.17
2018-08-11T01:34:34.613Z,16.05
2018-08-11T01:35:34.614Z,16.18
2018-08-11T01:36:34.615Z,16.09
2018-08-11T01:37:34.614Z,16.02
2018-08-11T01:38:34.613Z,16.10
2018-08-11T01:39:34.615Z,16.08
2018-08-11T01:40:34.614Z,16.00
2018-08-11T01:41:34.612Z,15.88
2018-08-11T01:42:34.614Z,15.85
2018-08-11T01:43:34.614Z,15.91
2018-08-11T01:44:34.612Z,15.91
2018-08-11T01:45:34.613Z,15.85
2018-08-11T01:46:34.614Z,15.90
2018-08-11T01:47:34.614Z,15.90
2018-08-11T01:48:34.613Z,15.96
2018-08-11T01:49:34.616Z,15.98
2018-08-11T01:50:34.614Z,15.92
2018-08-11T01:51:34.617Z,15.94
2018-08-11T01:52:34.612Z,15.92
2018-08-11T01:53:34.614Z,15.81
2018-08-11T01:54:34.614Z,15.84
2018-08-11T01:55:34.614Z,15.85
2018-08-11T01:56:34.613Z,15.76
2018-08-11T01:57:34.613Z,15.81
2018-08-11T01:58:34.615Z,15.75
2018-08-11T01:59:34.614Z,15.80
2018-08-11T02:00:34.612Z,15.85
2018-08-11T02:01:34.612Z,15.73
2018-08-11T02:02:34.614Z,15.85
2018-08-11T02:03:34.614Z,15.90
2018-08-11T02:04:34.612Z,15.91
2018-08-11T02:05:34.617Z,15.98
2018-08-11T02:06:34.614Z,16.00
2018-08-11T02:07:34.614Z,16.08
2018-08-11T02:08:34.613Z,15.99
2018-08-11T02:09:34.613Z,15.94
2018-08-11T02:10:34.613Z,15.99
2018-08-11T02:11:34.614Z,15.91
2018-08-11T02:12:34.616Z,15.83
2018-08-11T02:13:34.613Z,15.88
2018-08-11T02:14:34.612Z,15.84
2018-08-11T02:15:34.613Z,15.87
2018-08-11T02:16:34.613Z,15.88
2018-08-11T02:17:34.612Z,15.73
2018-08-11T02:18:34.613Z,16.09
2018-08-11T02:19:34.613Z,15.94
2018-08-11T02:20:34.611Z,15.83
2018-08-11T02:21:34.612Z,15.81
2018-08-11T02:22:34.611Z,15.73
2018-08-11T02:23:34.613Z,15.75
2018-08-11T02:24:34.614Z,15.66
2018-08-11T02:25:34.611Z,15.70
2018-08-11T02:26:34.612Z,15.65
2018-08-11T02:27:34.612Z,15.73
2018-08-11T02:28:34.612Z,15.76
2018-08-11T02:29:34.612Z,15.72
2018-08-11T02:30:34.612Z,15.80
2018-08-11T02:31:34.613Z,15.85
2018-08-11T02:32:34.614Z,15.81
2018-08-11T02:33:34.611Z,15.90
2018-08-11T02:34:34.614Z,15.75
2018-08-11T02:35:34.611Z,15.80
2018-08-11T02:36:34.610Z,15.84
2018-08-11T02:37:34.617Z,15.81
2018-08-11T02:38:34.610Z,15.75
2018-08-11T02:39:34.610Z,15.81
2018-08-11T02:40:34.609Z,15.81
2018-08-11T02:41:34.611Z,15.87
2018-08-11T02:42:34.610Z,15.81
2018-08-11T02:43:34.609Z,15.94
2018-08-11T02:44:34.609Z,16.29
2018-08-11T02:45:34.609Z,16.12
2018-08-11T02:46:34.609Z,16.17
2018-08-11T02:47:34.608Z,16.08
2018-08-11T02:48:34.608Z,16.06
2018-08-11T02:49:34.608Z,16.05
2018-08-11T02:50:34.608Z,16.18
2018-08-11T02:51:34.608Z,16.05
2018-08-11T02:52:34.612Z,16.03
2018-08-11T02:53:34.607Z,15.99
2018-08-11T02:54:34.606Z,15.96
2018-08-11T02:55:34.608Z,15.88
2018-08-11T02:56:34.609Z,15.73
2018-08-11T02:57:34.607Z,15.85
2018-08-11T02:58:34.607Z,15.67
2018-08-11T02:59:34.607Z,15.75
2018-08-11T03:00:34.607Z,15.73
2018-08-11T03:01:34.607Z,15.85
2018-08-11T03:02:34.708Z,15.83
2018-08-11T03:03:34.607Z,15.83
2018-08-11T03:04:34.605Z,15.83
2018-08-11T03:05:34.607Z,15.81
2018-08-11T03:06:34.607Z,15.88
2018-08-11T03:07:34.612Z,15.78
2018-08-11T03:08:34.605Z,15.76
2018-08-11T03:09:34.605Z,15.88
2018-08-11T03:10:34.616Z,15.76
2018-08-11T03:11:34.605Z,15.84
2018-08-11T03:12:34.608Z,15.78
2018-08-11T03:13:34.604Z,15.73
2018-08-11T03:14:34.605Z,15.72
2018-08-11T03:15:34.605Z,15.72
2018-08-11T03:16:34.606Z,15.59
2018-08-11T03:17:34.615Z,15.65
2018-08-11T03:18:34.603Z,15.55
2018-08-11T03:19:34.604Z,15.47
2018-08-11T03:20:34.603Z,15.43
2018-08-11T03:21:34.603Z,15.65
2018-08-11T03:22:34.603Z,15.70
2018-08-11T03:23:34.606Z,15.59
2018-08-11T03:24:34.602Z,15.67
2018-08-11T03:25:34.602Z,15.66
2018-08-11T03:26:34.602Z,15.54
2018-08-11T03:27:34.602Z,15.54
2018-08-11T03:28:34.601Z,15.47
2018-08-11T03:29:34.600Z,15.51
2018-08-11T03:30:34.601Z,15.52
2018-08-11T03:31:34.601Z,15.51
2018-08-11T03:32:34.599Z,15.47
2018-08-11T03:33:34.598Z,15.48
2018-08-11T03:34:34.599Z,15.41
2018-08-11T03:35:34.598Z,15.39
2018-08-11T03:36:34.598Z,15.43
2018-08-11T03:37:34.597Z,15.43
2018-08-11T03:38:34.597Z,15.48
2018-08-11T03:39:34.598Z,15.44
2018-08-11T03:40:34.597Z,15.43
2018-08-11T03:41:34.596Z,15.48
2018-08-11T03:42:34.599Z,15.60
2018-08-11T03:43:34.597Z,15.45
2018-08-11T03:44:34.596Z,15.39
2018-08-11T03:45:34.596Z,15.33
2018-08-11T03:46:34.599Z,15.26
2018-08-11T03:47:34.596Z,15.33
2018-08-11T03:48:34.592Z,15.41
2018-08-11T03:49:34.594Z,15.44
2018-08-11T03:50:34.599Z,15.47
2018-08-11T03:51:34.593Z,15.37
2018-08-11T03:52:34.595Z,15.44
2018-08-11T03:53:34.593Z,15.39
2018-08-11T03:54:34.592Z,15.33
2018-08-11T03:55:34.592Z,15.35
2018-08-11T03:56:34.591Z,15.43
2018-08-11T03:57:34.591Z,15.41
2018-08-11T03:58:34.591Z,15.44
2018-08-11T03:59:34.590Z,15.30
2018-08-11T04:00:34.588Z,15.33
2018-08-11T04:01:34.590Z,15.43
2018-08-11T04:02:34.589Z,15.33
2018-08-11T04:03:34.590Z,15.32
2018-08-11T04:04:34.589Z,15.25
2018-08-11T04:05:34.588Z,15.39
2018-08-11T04:06:34.606Z,15.39
2018-08-11T04:07:34.588Z,15.33
2018-08-11T04:08:34.586Z,15.59
2018-08-11T04:09:34.587Z,15.54
2018-08-11T04:10:34.586Z,15.59
2018-08-11T04:11:34.586Z,15.60
2018-08-11T04:12:34.588Z,15.51
2018-08-11T04:13:34.585Z,15.55
2018-08-11T04:14:34.586Z,15.63
2018-08-11T04:15:34.584Z,15.51
2018-08-11T04:16:34.583Z,15.43
2018-08-11T04:17:34.583Z,15.39
2018-08-11T04:18:34.581Z,15.45
2018-08-11T04:19:34.581Z,15.48
2018-08-11T04:20:34.581Z,15.41
2018-08-11T04:21:34.580Z,15.41
2018-08-11T04:22:34.581Z,15.41
2018-08-11T04:23:34.580Z,15.27
2018-08-11T04:24:34.580Z,15.25
2018-08-11T04:25:34.579Z,15.27
2018-08-11T04:26:34.578Z,15.30
2018-08-11T04:27:34.578Z,15.30
2018-08-11T04:28:34.577Z,15.36
2018-08-11T04:29:34.577Z,15.33
2018-08-11T04:30:34.577Z,15.29
2018-08-11T04:31:34.580Z,15.32
2018-08-11T04:32:34.575Z,15.30
2018-08-11T04:33:34.574Z,15.27
2018-08-11T04:34:34.574Z,15.26
2018-08-11T04:35:34.589Z,15.29
2018-08-11T04:36:34.572Z,15.12
2018-08-11T04:37:34.575Z,15.15
2018-08-11T04:38:34.573Z,15.14
2018-08-11T04:39:34.572Z,15.19
2018-08-11T04:40:34.572Z,15.18
2018-08-11T04:41:34.571Z,15.19
2018-08-11T04:42:34.572Z,15.26
2018-08-11T04:43:34.570Z,15.19
2018-08-11T04:44:34.570Z,15.52
2018-08-11T04:45:34.572Z,15.50
2018-08-11T04:46:34.570Z,15.52
2018-08-11T04:47:34.569Z,15.55
2018-08-11T04:48:34.568Z,15.54
2018-08-11T04:49:34.567Z,15.55
2018-08-11T04:50:34.571Z,15.76
2018-08-11T04:51:34.568Z,15.91
2018-08-11T04:52:34.567Z,15.90
2018-08-11T04:53:34.566Z,15.96
2018-08-11T04:54:34.566Z,15.92
2018-08-11T04:55:34.566Z,15.84
2018-08-11T04:56:34.564Z,15.78
2018-08-11T04:57:34.564Z,15.73
2018-08-11T04:58:34.565Z,15.57
2018-08-11T04:59:34.563Z,15.57
2018-08-11T05:00:34.563Z,15.72
2018-08-11T05:01:34.563Z,15.66
2018-08-11T05:02:34.563Z,15.75
2018-08-11T05:03:34.563Z,15.78
2018-08-11T05:04:34.562Z,15.81
2018-08-11T05:05:34.562Z,15.80
2018-08-11T05:06:34.562Z,15.69
2018-08-11T05:07:34.562Z,15.75
2018-08-11T05:08:34.560Z,15.66
2018-08-11T05:09:34.561Z,15.65
2018-08-11T05:10:34.560Z,15.72
2018-08-11T05:11:34.559Z,15.73
2018-08-11T05:12:34.558Z,15.72
2018-08-11T05:13:34.560Z,15.73
2018-08-11T05:14:34.560Z,15.69
2018-08-11T05:15:34.560Z,15.88
2018-08-11T05:16:34.559Z,15.92
2018-08-11T05:17:34.559Z,15.90
2018-08-11T05:18:34.559Z,16.03
2018-08-11T05:19:34.558Z,16.03
2018-08-11T05:20:34.559Z,16.06
2018-08-11T05:21:34.558Z,16.08
2018-08-11T05:22:34.596Z,15.98
2018-08-11T05:23:34.558Z,16.02
2018-08-11T05:24:34.558Z,15.98
2018-08-11T05:25:34.558Z,16.02
2018-08-11T05:26:34.557Z,16.16
2018-08-11T05:27:34.558Z,16.17
2018-08-11T05:28:34.556Z,16.18
2018-08-11T05:29:34.561Z,16.22
2018-08-11T05:30:34.557Z,16.17
2018-08-11T05:31:34.558Z,16.18
2018-08-11T05:32:34.557Z,16.18
2018-08-11T05:33:34.558Z,16.16
2018-08-11T05:34:34.556Z,16.40
2018-08-11T05:35:34.558Z,16.49
2018-08-11T05:36:34.557Z,16.36
2018-08-11T05:37:34.561Z,16.40
2018-08-11T05:38:34.557Z,16.43
2018-08-11T05:39:34.556Z,16.49
2018-08-11T05:40:34.560Z,16.43
2018-08-11T05:41:34.594Z,16.37
2018-08-11T05:42:34.558Z,16.37
2018-08-11T05:43:34.558Z,16.41
2018-08-11T05:44:34.557Z,16.44
2018-08-11T05:45:34.556Z,16.43
2018-08-11T05:46:34.557Z,16.39
2018-08-11T05:47:34.557Z,16.43
2018-08-11T05:48:34.558Z,16.49
2018-08-11T05:49:34.557Z,16.46
2018-08-11T05:50:34.558Z,16.39
2018-08-11T05:51:34.559Z,16.43
2018-08-11T05:52:34.558Z,16.65
2018-08-11T05:53:34.558Z,16.69
2018-08-11T05:54:34.561Z,16.59
2018-08-11T05:55:34.559Z,16.55
2018-08-11T05:56:34.559Z,16.62
2018-08-11T05:57:34.559Z,16.61
2018-08-11T05:58:34.558Z,16.61
2018-08-11T05:59:34.560Z,16.51
2018-08-11T06:00:34.559Z,16.37
2018-08-11T06:01:34.559Z,16.47
2018-08-11T06:02:34.559Z,16.57
2018-08-11T06:03:34.560Z,16.68
2018-08-11T06:04:34.560Z,16.62
2018-08-11T06:05:34.560Z,16.57
2018-08-11T06:06:34.559Z,16.59
2018-08-11T06:07:34.561Z,16.55
2018-08-11T06:08:34.560Z,16.47
2018-08-11T06:09:34.561Z,16.59
2018-08-11T06:10:34.605Z,16.57
2018-08-11T06:11:34.561Z,16.59
2018-08-11T06:12:34.561Z,16.59
2018-08-11T06:13:34.561Z,16.55
2018-08-11T06:14:34.561Z,16.58
2018-08-11T06:15:34.562Z,16.68
2018-08-11T06:16:34.564Z,16.64
2018-08-11T06:17:34.562Z,16.66
2018-08-11T06:18:34.563Z,16.76
2018-08-11T06:19:34.566Z,16.74
2018-08-11T06:20:34.563Z,16.77
2018-08-11T06:21:34.563Z,16.77
2018-08-11T06:22:34.564Z,16.79
2018-08-11T06:23:34.564Z,16.87
2018-08-11T06:24:34.566Z,16.91
2018-08-11T06:25:34.566Z,16.97
2018-08-11T06:26:34.566Z,17.05
2018-08-11T06:27:34.565Z,17.14
2018-08-11T06:28:34.566Z,17.09
2018-08-11T06:29:34.566Z,17.24
2018-08-11T06:30:34.570Z,17.24
2018-08-11T06:31:34.732Z,17.27
2018-08-11T06:32:34.568Z,17.31
2018-08-11T06:33:34.569Z,17.38
2018-08-11T06:34:34.570Z,17.42
2018-08-11T06:35:34.573Z,17.82
2018-08-11T06:36:34.571Z,17.90
2018-08-11T06:37:34.572Z,17.80
2018-08-11T06:38:34.573Z,17.76
2018-08-11T06:39:34.574Z,17.68
2018-08-11T06:40:34.648Z,17.71
2018-08-11T06:41:34.575Z,17.72
2018-08-11T06:42:34.576Z,17.78
2018-08-11T06:43:34.577Z,17.80
2018-08-11T06:44:34.577Z,17.76
2018-08-11T06:45:34.579Z,17.76
2018-08-11T06:46:34.599Z,17.91
2018-08-11T06:47:34.580Z,17.93
2018-08-11T06:48:34.581Z,17.87
2018-08-11T06:49:34.587Z,17.97
2018-08-11T06:50:34.584Z,18.00
2018-08-11T06:51:34.585Z,18.03
2018-08-11T06:52:34.586Z,18.19
2018-08-11T06:53:34.587Z,18.16
2018-08-11T06:54:34.587Z,18.21
2018-08-11T06:55:34.604Z,18.36
2018-08-11T06:56:34.590Z,18.42
2018-08-11T06:57:34.600Z,18.48
2018-08-11T06:58:34.595Z,18.53
2018-08-11T06:59:34.595Z,18.57
2018-08-11T07:00:34.596Z,18.57
2018-08-11T07:01:34.597Z,18.55
2018-08-11T07:02:34.599Z,18.66
2018-08-11T07:03:34.601Z,18.71
2018-08-11T07:04:34.602Z,18.67
2018-08-11T07:05:34.603Z,18.57
2018-08-11T07:06:34.646Z,18.71
2018-08-11T07:07:34.608Z,19.34
2018-08-11T07:08:34.612Z,19.26
2018-08-11T07:09:34.611Z,19.20
2018-08-11T07:10:34.615Z,20.03
2018-08-11T07:11:34.618Z,20.07
2018-08-11T07:12:34.620Z,20.78
2018-08-11T07:13:34.623Z,21.99
2018-08-11T07:14:34.627Z,21.80
2018-08-11T07:15:34.630Z,21.28
2018-08-11T07:16:34.634Z,20.86
2018-08-11T07:17:34.636Z,20.74
2018-08-11T07:18:34.640Z,21.19
2018-08-11T07:19:34.643Z,21.14
2018-08-11T07:20:34.648Z,20.80
2018-08-11T07:21:34.649Z,20.77
2018-08-11T07:22:34.654Z,20.59
2018-08-11T07:23:34.658Z,21.04
2018-08-11T07:24:34.661Z,21.43
2018-08-11T07:25:34.663Z,21.63
2018-08-11T07:26:34.711Z,21.69
2018-08-11T07:27:34.672Z,21.58
2018-08-11T07:28:34.678Z,21.45
2018-08-11T07:29:34.677Z,21.29
2018-08-11T07:30:34.682Z,21.45
2018-08-11T07:31:34.687Z,21.14
2018-08-11T07:32:34.688Z,21.10
2018-08-11T07:33:34.693Z,20.89
2018-08-11T07:34:34.696Z,21.04
2018-08-11T07:35:34.700Z,21.00
2018-08-11T07:36:34.762Z,20.89
2018-08-11T07:37:34.708Z,20.82
2018-08-11T07:38:34.711Z,20.66
2018-08-11T07:39:34.747Z,20.82
2018-08-11T07:40:34.717Z,20.80
2018-08-11T07:41:34.720Z,20.75
2018-08-11T07:42:34.729Z,20.77
2018-08-11T07:43:34.726Z,20.64
2018-08-11T07:44:34.730Z,20.59
2018-08-11T07:45:34.733Z,20.49
2018-08-11T07:46:34.742Z,20.58
2018-08-11T07:47:34.758Z,20.58
2018-08-11T07:48:34.751Z,20.49
2018-08-11T07:49:34.749Z,20.68
2018-08-11T07:50:34.750Z,20.66
2018-08-11T07:51:34.752Z,20.58
2018-08-11T07:52:34.756Z,20.58
2018-08-11T07:53:34.759Z,20.59
2018-08-11T07:54:34.762Z,20.59
2018-08-11T07:55:34.767Z,20.56
2018-08-11T07:56:34.777Z,20.56
2018-08-11T07:57:34.772Z,20.66
2018-08-11T07:58:34.774Z,20.77
2018-08-11T07:59:34.778Z,20.86
2018-08-11T08:00:34.780Z,21.22
2018-08-11T08:01:34.785Z,21.35
2018-08-11T08:02:35.028Z,21.66
2018-08-11T08:03:34.793Z,21.65
2018-08-11T08:04:34.795Z,21.63
2018-08-11T08:05:34.801Z,21.40
2018-08-11T08:06:34.802Z,21.30
2018-08-11T08:07:34.807Z,21.15
2018-08-11T08:08:34.810Z,21.33
2018-08-11T08:09:34.815Z,21.48
2018-08-11T08:10:34.819Z,21.70
2018-08-11T08:11:34.822Z,21.62
2018-08-11T08:12:34.826Z,21.63
2018-08-11T08:13:34.884Z,21.83
2018-08-11T08:14:34.836Z,22.25
2018-08-11T08:15:34.840Z,22.12
2018-08-11T08:16:34.844Z,22.37
2018-08-11T08:17:34.848Z,22.84
2018-08-11T08:18:34.854Z,23.28
2018-08-11T08:19:34.861Z,23.25
2018-08-11T08:20:34.865Z,23.06
2018-08-11T08:21:34.870Z,22.68
2018-08-11T08:22:34.876Z,22.34
2018-08-11T08:23:34.883Z,22.01
2018-08-11T08:24:34.886Z,21.85
2018-08-11T08:25:34.898Z,21.75
2018-08-11T08:26:35.017Z,21.72
2018-08-11T08:27:34.904Z,21.72
2018-08-11T08:28:34.907Z,21.45
2018-08-11T08:29:34.913Z,21.30
2018-08-11T08:30:34.918Z,21.11
2018-08-11T08:31:34.922Z,21.07
2018-08-11T08:32:34.926Z,21.40
2018-08-11T08:33:34.930Z,21.41
2018-08-11T08:34:34.935Z,21.33
2018-08-11T08:35:34.942Z,21.35
2018-08-11T08:36:34.944Z,21.30
2018-08-11T08:37:34.949Z,21.51
2018-08-11T08:38:34.953Z,21.68
2018-08-11T08:39:34.962Z,22.30
2018-08-11T08:40:35.053Z,22.80
2018-08-11T08:41:34.968Z,23.33
2018-08-11T08:42:34.974Z,23.08
2018-08-11T08:43:34.980Z,23.62
2018-08-11T08:44:34.983Z,24.28
2018-08-11T08:45:34.991Z,24.86
2018-08-11T08:46:34.997Z,25.07
2018-08-11T08:47:35.043Z,25.56
2018-08-11T08:48:35.010Z,26.10
2018-08-11T08:49:35.210Z,26.15
2018-08-11T08:50:35.025Z,26.01
2018-08-11T08:51:35.044Z,26.22
2018-08-11T08:52:35.040Z,26.33
2018-08-11T08:53:35.047Z,26.59
2018-08-11T08:54:35.057Z,26.55
2018-08-11T08:55:35.067Z,26.46
2018-08-11T08:56:35.071Z,26.30
2018-08-11T08:57:35.080Z,26.31
2018-08-11T08:58:35.089Z,26.26
2018-08-11T08:59:35.097Z,26.01
2018-08-11T09:00:35.105Z,25.80
2018-08-11T09:01:35.113Z,25.76
2018-08-11T09:02:35.123Z,25.91
2018-08-11T09:03:35.133Z,26.11
2018-08-11T09:04:35.142Z,26.19
2018-08-11T09:05:35.151Z,26.49
2018-08-11T09:06:35.159Z,26.67
2018-08-11T09:07:35.168Z,26.88
2018-08-11T09:08:35.178Z,26.91
2018-08-11T09:09:35.190Z,26.68
2018-08-11T09:10:35.198Z,26.66
2018-08-11T09:11:35.206Z,26.24
2018-08-11T09:12:35.215Z,26.11
2018-08-11T09:13:35.226Z,25.77
2018-08-11T09:14:35.236Z,25.44
2018-08-11T09:15:35.245Z,25.00
2018-08-11T09:16:35.254Z,24.36
2018-08-11T09:17:35.264Z,23.89
2018-08-11T09:18:35.274Z,24.53
2018-08-11T09:19:35.379Z,24.92
2018-08-11T09:20:35.291Z,25.12
2018-08-11T09:21:35.300Z,25.19
2018-08-11T09:22:35.309Z,25.22
2018-08-11T09:23:35.317Z,25.14
2018-08-11T09:24:35.325Z,25.31
2018-08-11T09:25:35.337Z,25.41
2018-08-11T09:26:35.343Z,25.25
2018-08-11T09:27:35.352Z,25.41
2018-08-11T09:28:35.359Z,25.33
2018-08-11T09:29:35.368Z,25.37
2018-08-11T09:30:35.378Z,25.34
2018-08-11T09:31:35.386Z,25.56
2018-08-11T09:32:35.393Z,25.73
2018-08-11T09:33:35.402Z,25.71
2018-08-11T09:34:35.411Z,25.86
2018-08-11T09:35:35.425Z,25.98
2018-08-11T09:36:35.428Z,26.15
2018-08-11T09:37:35.436Z,26.19
2018-08-11T09:38:35.447Z,26.34
2018-08-11T09:39:35.455Z,26.48
2018-08-11T09:40:35.463Z,26.66
2018-08-11T09:41:35.472Z,26.55
2018-08-11T09:42:35.486Z,26.66
2018-08-11T09:43:35.491Z,26.30
2018-08-11T09:44:35.509Z,26.10
2018-08-11T09:45:35.510Z,25.92
2018-08-11T09:46:35.518Z,25.92
2018-08-11T09:47:35.527Z,25.78
2018-08-11T09:48:35.535Z,25.83
2018-08-11T09:49:35.544Z,25.81
2018-08-11T09:50:35.554Z,25.93
2018-08-11T09:51:35.563Z,25.80
2018-08-11T09:52:35.571Z,25.70
2018-08-11T09:53:35.582Z,25.68
2018-08-11T09:54:35.590Z,25.70
2018-08-11T09:55:35.771Z,25.86
2018-08-11T09:56:35.607Z,25.89
2018-08-11T09:57:35.925Z,25.61
2018-08-11T09:58:35.627Z,25.55
2018-08-11T09:59:35.633Z,25.61
2018-08-11T10:00:35.641Z,25.26
2018-08-11T10:01:35.653Z,25.11
2018-08-11T10:02:35.658Z,24.74
2018-08-11T10:03:35.667Z,24.59
2018-08-11T10:04:35.673Z,24.55
2018-08-11T10:05:35.681Z,24.38
2018-08-11T10:06:35.692Z,24.31
2018-08-11T10:07:35.697Z,24.51
2018-08-11T10:08:35.703Z,24.63
2018-08-11T10:09:35.713Z,24.61
2018-08-11T10:10:35.768Z,24.62
2018-08-11T10:11:35.728Z,24.71
2018-08-11T10:12:35.734Z,24.62
2018-08-11T10:13:35.744Z,24.32
2018-08-11T10:14:35.748Z,24.29
2018-08-11T10:15:35.757Z,24.29
2018-08-11T10:16:35.763Z,24.44
2018-08-11T10:17:35.770Z,24.58
2018-08-11T10:18:35.858Z,24.29
2018-08-11T10:19:35.785Z,24.25
2018-08-11T10:20:35.793Z,24.56
2018-08-11T10:21:35.800Z,24.56
2018-08-11T10:22:35.809Z,24.56
2018-08-11T10:23:35.815Z,24.48
2018-08-11T10:24:35.821Z,24.46
2018-08-11T10:25:35.830Z,24.69
2018-08-11T10:26:35.837Z,24.69
2018-08-11T10:27:35.843Z,24.65
2018-08-11T10:28:35.848Z,24.13
2018-08-11T10:29:35.857Z,23.92
2018-08-11T10:30:35.864Z,23.95
2018-08-11T10:31:35.873Z,23.99
2018-08-11T10:32:35.876Z,24.16
2018-08-11T10:33:35.892Z,24.06
2018-08-11T10:34:35.891Z,23.85
2018-08-11T10:35:35.899Z,23.91
2018-08-11T10:36:35.903Z,23.76
2018-08-11T10:37:35.910Z,23.71
2018-08-11T10:38:35.917Z,23.67
2018-08-11T10:39:35.923Z,23.67
2018-08-11T10:40:35.928Z,23.85
2018-08-11T10:41:35.935Z,23.70
2018-08-11T10:42:35.944Z,23.95
2018-08-11T10:43:35.947Z,24.11
2018-08-11T10:44:35.952Z,24.28
2018-08-11T10:45:35.959Z,24.31
2018-08-11T10:46:35.970Z,24.55
2018-08-11T10:47:35.973Z,24.65
2018-08-11T10:48:35.978Z,24.66
2018-08-11T10:49:35.991Z,25.00
2018-08-11T10:50:35.992Z,25.19
2018-08-11T10:51:36.001Z,25.54
2018-08-11T10:52:36.006Z,25.55
2018-08-11T10:53:36.012Z,25.59
2018-08-11T10:54:36.019Z,25.40
2018-08-11T10:55:36.025Z,24.85
2018-08-11T10:56:36.032Z,24.59
2018-08-11T10:57:36.039Z,24.97
2018-08-11T10:58:36.046Z,25.21
2018-08-11T10:59:36.054Z,25.56
2018-08-11T11:00:36.060Z,25.33
2018-08-11T11:01:36.068Z,25.01
2018-08-11T11:02:36.074Z,24.84
2018-08-11T11:03:36.082Z,24.47
2018-08-11T11:04:36.089Z,24.24
2018-08-11T11:05:36.099Z,24.04
2018-08-11T11:06:36.105Z,23.77
2018-08-11T11:07:36.109Z,23.45
2018-08-11T11:08:36.115Z,23.45
2018-08-11T11:09:36.122Z,23.17
2018-08-11T11:10:36.129Z,23.18
2018-08-11T11:11:36.136Z,23.13
2018-08-11T11:12:36.141Z,23.16
2018-08-11T11:13:36.146Z,23.20
2018-08-11T11:14:36.156Z,23.06
2018-08-11T11:15:36.159Z,23.13
2018-08-11T11:16:36.165Z,23.18
2018-08-11T11:17:36.171Z,23.34
2018-08-11T11:18:36.192Z,23.66
2018-08-11T11:19:36.183Z,23.84
2018-08-11T11:20:36.188Z,24.11
2018-08-11T11:21:36.198Z,24.36
2018-08-11T11:22:36.201Z,24.31
2018-08-11T11:23:36.211Z,24.38
2018-08-11T11:24:36.212Z,24.28
2018-08-11T11:25:36.218Z,24.11
2018-08-11T11:26:36.224Z,23.94
2018-08-11T11:27:36.230Z,23.82
2018-08-11T11:28:36.235Z,24.06
2018-08-11T11:29:36.241Z,24.19
2018-08-11T11:30:36.249Z,24.36
2018-08-11T11:31:36.253Z,24.53
2018-08-11T11:32:36.261Z,24.84
2018-08-11T11:33:36.264Z,25.04
2018-08-11T11:34:36.272Z,25.03
2018-08-11T11:35:36.278Z,25.15
2018-08-11T11:36:36.283Z,25.22
2018-08-11T11:37:36.290Z,25.26
2018-08-11T11:38:36.296Z,25.34
2018-08-11T11:39:36.303Z,25.29
2018-08-11T11:40:36.310Z,25.06
2018-08-11T11:41:36.314Z,25.14
2018-08-11T11:42:36.322Z,25.29
2018-08-11T11:43:36.329Z,25.26
2018-08-11T11:44:36.335Z,25.15
2018-08-11T11:45:36.342Z,25.06
2018-08-11T11:46:36.350Z,25.12
2018-08-11T11:47:36.354Z,25.04
2018-08-11T11:48:36.362Z,25.01
2018-08-11T11:49:36.368Z,24.89
2018-08-11T11:50:36.376Z,24.97
2018-08-11T11:51:36.387Z,24.86
2018-08-11T11:52:36.388Z,24.84
2018-08-11T11:53:36.454Z,25.04
2018-08-11T11:54:36.402Z,25.04
2018-08-11T11:55:36.410Z,25.03
2018-08-11T11:56:36.415Z,25.18
2018-08-11T11:57:36.422Z,25.11
2018-08-11T11:58:36.429Z,25.30
2018-08-11T11:59:36.436Z,25.30
2018-08-11T12:00:36.441Z,25.43
2018-08-11T12:01:36.449Z,25.55
2018-08-11T12:02:36.456Z,25.63
2018-08-11T12:03:36.464Z,25.63
2018-08-11T12:04:36.469Z,25.59
2018-08-11T12:05:36.475Z,25.55
2018-08-11T12:06:36.482Z,25.49
2018-08-11T12:07:36.490Z,25.37
2018-08-11T12:08:36.499Z,25.30
2018-08-11T12:09:36.503Z,25.16
2018-08-11T12:10:36.510Z,25.25
2018-08-11T12:11:36.516Z,25.30
2018-08-11T12:12:36.523Z,25.44
2018-08-11T12:13:36.528Z,25.54
2018-08-11T12:14:36.535Z,25.52
2018-08-11T12:15:36.543Z,25.54
2018-08-11T12:16:36.549Z,25.52
2018-08-11T12:17:36.556Z,25.43
2018-08-11T12:18:36.563Z,25.52
2018-08-11T12:19:36.575Z,25.58
2018-08-11T12:20:36.576Z,25.56
2018-08-11T12:21:36.582Z,25.56
2018-08-11T12:22:36.590Z,25.44
2018-08-11T12:23:36.597Z,25.48
2018-08-11T12:24:36.602Z,25.31
2018-08-11T12:25:36.610Z,25.30
2018-08-11T12:26:36.615Z,25.29
2018-08-11T12:27:36.624Z,25.18
2018-08-11T12:28:36.629Z,24.99
2018-08-11T12:29:36.639Z,24.85
2018-08-11T12:30:36.643Z,24.77
2018-08-11T12:31:36.650Z,24.75
2018-08-11T12:32:36.656Z,24.75
2018-08-11T12:33:36.662Z,24.79
2018-08-11T12:34:36.669Z,24.66
2018-08-11T12:35:36.678Z,24.88
2018-08-11T12:36:36.683Z,24.89
2018-08-11T12:37:36.687Z,24.81
2018-08-11T12:38:36.694Z,24.81
2018-08-11T12:39:36.703Z,24.86
2018-08-11T12:40:36.707Z,24.63
2018-08-11T12:41:36.714Z,24.63
2018-08-11T12:42:36.720Z,24.66
2018-08-11T12:43:36.726Z,24.69
2018-08-11T12:44:36.732Z,24.79
2018-08-11T12:45:36.807Z,24.85
2018-08-11T12:46:36.748Z,24.82
2018-08-11T12:47:36.754Z,24.84
2018-08-11T12:48:36.758Z,24.85
2018-08-11T12:49:36.770Z,24.84
2018-08-11T12:50:36.772Z,24.85
2018-08-11T12:51:36.783Z,24.78
2018-08-11T12:52:36.783Z,24.94